createdAt,value
2017-05-31T00:00:55.803Z,18.80
2017-05-31T00:03:24.138Z,18.70
2017-05-31T00:05:52.443Z,18.70
2017-05-31T00:08:20.794Z,18.70
2017-05-31T00:10:49.122Z,18.70
2017-05-31T00:13:17.431Z,18.70
2017-05-31T00:15:45.920Z,18.80
2017-05-31T00:18:14.399Z,18.80
2017-05-31T00:20:42.798Z,18.90
2017-05-31T00:23:11.102Z,18.90
2017-05-31T00:25:39.442Z,18.90
2017-05-31T00:28:07.741Z,19.00
2017-05-31T00:30:36.045Z,18.90
2017-05-31T00:33:04.369Z,18.90
2017-05-31T00:35:32.847Z,18.90
2017-05-31T00:38:01.327Z,18.90
2017-05-31T00:40:29.809Z,18.90
2017-05-31T00:42:58.109Z,18.90
2017-05-31T00:45:26.434Z,18.90
2017-05-31T00:47:54.945Z,19.00
2017-05-31T00:50:23.342Z,19.10
2017-05-31T00:52:51.669Z,19.10
2017-05-31T00:55:19.974Z,19.20
2017-05-31T00:57:48.283Z,19.20
2017-05-31T01:00:16.650Z,19.20
2017-05-31T01:02:44.952Z,19.20
2017-05-31T01:05:13.298Z,19.20
2017-05-31T01:07:41.768Z,19.20
2017-05-31T01:10:10.172Z,19.20
2017-05-31T01:12:38.538Z,19.20
2017-05-31T01:15:06.914Z,19.20
2017-05-31T01:17:35.270Z,19.10
2017-05-31T01:20:03.683Z,19.10
2017-05-31T01:22:32.056Z,19.10
2017-05-31T01:25:00.430Z,19.10
2017-05-31T01:27:28.818Z,19.00
2017-05-31T01:29:57.186Z,18.90
2017-05-31T01:32:25.491Z,18.80
2017-05-31T01:34:53.843Z,18.80
2017-05-31T01:37:22.228Z,18.70
2017-05-31T01:39:50.545Z,18.60
2017-05-31T01:42:18.977Z,18.60
2017-05-31T01:44:47.281Z,18.50
2017-05-31T01:47:15.629Z,18.40
2017-05-31T01:49:44.012Z,18.40
2017-05-31T01:52:12.309Z,18.30
2017-05-31T01:54:40.677Z,18.20
2017-05-31T01:57:09.046Z,18.20
2017-05-31T01:59:37.422Z,18.20
2017-05-31T02:02:05.895Z,18.20
2017-05-31T02:04:34.194Z,18.10
2017-05-31T02:07:02.562Z,18.10
2017-05-31T02:09:31.032Z,18.10
2017-05-31T02:11:59.422Z,18.00
2017-05-31T02:14:27.818Z,17.90
2017-05-31T02:16:56.199Z,17.90
2017-05-31T02:19:24.506Z,17.80
2017-05-31T02:21:52.926Z,17.80
2017-05-31T02:24:21.230Z,17.80
2017-05-31T02:26:49.590Z,17.80
2017-05-31T02:29:17.902Z,17.80
2017-05-31T02:31:46.258Z,17.80
2017-05-31T02:34:14.641Z,17.80
2017-05-31T02:36:42.953Z,17.70
2017-05-31T02:39:11.259Z,17.70
2017-05-31T02:41:39.670Z,17.70
2017-05-31T02:44:08.041Z,17.60
2017-05-31T02:46:36.726Z,17.50
2017-05-31T02:49:05.105Z,17.40
2017-05-31T02:51:33.411Z,17.30
2017-05-31T02:54:01.751Z,17.30
2017-05-31T02:56:30.056Z,17.20
2017-05-31T02:58:58.358Z,17.30
2017-05-31T03:01:26.682Z,17.30
2017-05-31T03:03:55.013Z,17.20
2017-05-31T03:06:23.347Z,17.10
2017-05-31T03:08:51.730Z,17.10
2017-05-31T03:11:20.318Z,17.10
2017-05-31T03:13:48.726Z,17.10
2017-05-31T03:16:17.054Z,17.20
2017-05-31T03:18:45.434Z,17.20
2017-05-31T03:21:13.830Z,17.20
2017-05-31T03:23:42.146Z,17.20
2017-05-31T03:26:10.479Z,17.20
2017-05-31T03:28:38.797Z,17.20
2017-05-31T03:31:07.123Z,17.20
2017-05-31T03:33:35.603Z,17.30
2017-05-31T03:36:03.909Z,17.30
2017-05-31T03:38:32.269Z,17.30
2017-05-31T03:41:00.593Z,17.30
2017-05-31T03:43:28.929Z,17.30
2017-05-31T03:45:57.303Z,17.40
2017-05-31T03:48:25.695Z,17.40
2017-05-31T03:50:53.997Z,17.50
2017-05-31T03:53:22.327Z,17.70
2017-05-31T03:55:51.225Z,17.80
2017-05-31T03:58:19.524Z,17.90
2017-05-31T04:00:48.079Z,18.10
2017-05-31T04:03:16.560Z,18.10
2017-05-31T04:05:44.870Z,18.20
2017-05-31T04:08:13.227Z,18.20
2017-05-31T04:10:41.530Z,18.20
2017-05-31T04:13:09.830Z,18.20
2017-05-31T04:15:38.257Z,18.20
2017-05-31T04:18:06.731Z,18.20
2017-05-31T04:20:35.212Z,18.30
2017-05-31T04:23:03.617Z,18.30
2017-05-31T04:25:31.986Z,18.40
2017-05-31T04:28:00.354Z,18.60
2017-05-31T04:30:28.658Z,18.60
2017-05-31T04:32:57.823Z,18.70
2017-05-31T04:35:26.217Z,18.80
2017-05-31T04:37:54.683Z,18.80
2017-05-31T04:40:23.078Z,19.00
2017-05-31T04:42:51.387Z,19.10
2017-05-31T04:45:19.689Z,19.20
2017-05-31T04:47:48.017Z,19.30
2017-05-31T04:50:16.699Z,19.50
2017-05-31T04:52:44.997Z,19.50
2017-05-31T04:55:13.293Z,19.70
2017-05-31T04:57:41.817Z,19.80
2017-05-31T05:00:10.219Z,19.80
2017-05-31T05:02:38.522Z,19.90
2017-05-31T05:05:06.846Z,19.90
2017-05-31T05:07:35.150Z,19.90
2017-05-31T05:10:03.514Z,20.00
2017-05-31T05:12:31.813Z,20.00
2017-05-31T05:15:00.118Z,19.90
2017-05-31T05:17:28.558Z,20.00
2017-05-31T05:19:57.020Z,19.90
2017-05-31T05:22:26.042Z,19.80
2017-05-31T05:24:54.344Z,19.70
2017-05-31T05:27:22.782Z,19.50
2017-05-31T05:29:51.090Z,19.50
2017-05-31T05:32:19.442Z,19.50
2017-05-31T05:34:47.816Z,19.50
2017-05-31T05:37:16.288Z,19.50
2017-05-31T05:39:44.608Z,19.60
2017-05-31T05:42:12.951Z,19.70
2017-05-31T05:44:41.253Z,19.90
2017-05-31T05:47:09.558Z,20.10
2017-05-31T05:49:37.889Z,20.20
2017-05-31T05:52:06.357Z,20.20
2017-05-31T05:54:34.686Z,20.30
2017-05-31T05:57:03.012Z,20.30
2017-05-31T05:59:32.105Z,20.40
2017-05-31T06:02:00.443Z,20.50
2017-05-31T06:04:28.747Z,20.70
2017-05-31T06:06:57.049Z,20.80
2017-05-31T06:09:25.387Z,20.90
2017-05-31T06:11:53.690Z,21.10
2017-05-31T06:14:21.995Z,21.20
2017-05-31T06:16:50.348Z,21.30
2017-05-31T06:19:18.670Z,21.20
2017-05-31T06:21:47.006Z,21.30
2017-05-31T06:24:15.306Z,21.20
2017-05-31T06:26:43.626Z,21.20
2017-05-31T06:29:11.932Z,21.10
2017-05-31T06:31:40.254Z,21.10
2017-05-31T06:34:08.713Z,21.20
2017-05-31T06:36:37.030Z,21.20
2017-05-31T06:39:05.334Z,21.30
2017-05-31T06:41:33.674Z,21.50
2017-05-31T06:44:01.978Z,21.70
2017-05-31T06:46:30.291Z,21.80
2017-05-31T06:48:58.638Z,21.80
2017-05-31T06:51:26.942Z,21.90
2017-05-31T06:53:55.241Z,21.90
2017-05-31T06:56:23.606Z,21.90
2017-05-31T06:58:51.915Z,22.00
2017-05-31T07:01:20.244Z,22.00
2017-05-31T07:03:48.581Z,21.90
2017-05-31T07:06:16.887Z,22.00
2017-05-31T07:08:45.197Z,21.90
2017-05-31T07:11:13.533Z,22.00
2017-05-31T07:13:41.833Z,22.00
2017-05-31T07:16:10.145Z,22.00
2017-05-31T07:18:38.473Z,22.20
2017-05-31T07:21:06.779Z,22.30
2017-05-31T07:23:35.082Z,22.40
2017-05-31T07:26:03.426Z,22.40
2017-05-31T07:28:31.726Z,22.40
2017-05-31T07:31:00.029Z,22.40
2017-05-31T07:33:28.350Z,22.50
2017-05-31T07:35:56.650Z,22.60
2017-05-31T07:38:24.982Z,22.50
2017-05-31T07:40:53.282Z,22.60
2017-05-31T07:43:21.582Z,22.60
2017-05-31T07:45:49.898Z,22.70
2017-05-31T07:48:18.234Z,22.80
2017-05-31T07:50:46.541Z,22.80
2017-05-31T07:53:14.837Z,22.90
2017-05-31T07:55:43.243Z,22.90
2017-05-31T07:58:11.585Z,22.90
2017-05-31T08:00:39.889Z,23.10
2017-05-31T08:03:08.277Z,23.20
2017-05-31T08:05:36.602Z,23.40
2017-05-31T08:08:04.910Z,23.40
2017-05-31T08:10:33.311Z,23.40
2017-05-31T08:13:01.610Z,23.50
2017-05-31T08:15:29.937Z,23.60
2017-05-31T08:17:58.347Z,23.60
2017-05-31T08:20:26.646Z,23.60
2017-05-31T08:22:54.973Z,23.60
2017-05-31T08:25:23.275Z,23.70
2017-05-31T08:27:51.583Z,23.70
2017-05-31T08:30:19.918Z,23.80
2017-05-31T08:32:48.312Z,23.90
2017-05-31T08:35:16.618Z,23.90
2017-05-31T08:37:44.951Z,24.00
2017-05-31T08:40:13.267Z,24.10
2017-05-31T08:42:41.594Z,24.20
2017-05-31T08:45:09.903Z,24.20
2017-05-31T08:47:38.254Z,24.30
2017-05-31T08:50:06.554Z,24.50
2017-05-31T08:52:34.858Z,24.60
2017-05-31T08:55:03.193Z,24.70
2017-05-31T08:57:31.485Z,24.60
2017-05-31T08:59:59.789Z,24.80
2017-05-31T09:02:28.118Z,24.80
2017-05-31T09:04:56.410Z,24.90
2017-05-31T09:07:24.710Z,25.10
2017-05-31T09:09:53.043Z,25.40
2017-05-31T09:12:21.343Z,25.70
2017-05-31T09:14:49.649Z,25.90
2017-05-31T09:17:17.981Z,26.20
2017-05-31T09:19:46.269Z,26.30
2017-05-31T09:22:14.565Z,26.50
2017-05-31T09:24:42.889Z,26.50
2017-05-31T09:27:11.187Z,26.60
2017-05-31T09:29:39.486Z,26.50
2017-05-31T09:32:07.826Z,26.50
2017-05-31T09:34:36.119Z,26.40
2017-05-31T09:37:04.418Z,26.40
2017-05-31T09:39:32.746Z,26.30
2017-05-31T09:42:01.044Z,26.10
2017-05-31T09:44:29.350Z,25.10
2017-05-31T09:46:57.950Z,24.60
2017-05-31T09:49:26.246Z,24.40
2017-05-31T09:51:54.549Z,24.20
2017-05-31T09:54:22.883Z,24.40
2017-05-31T09:56:51.178Z,24.50
2017-05-31T09:59:19.473Z,24.90
2017-05-31T10:01:47.818Z,25.20
2017-05-31T10:04:16.121Z,25.60
2017-05-31T10:06:44.452Z,25.90
2017-05-31T10:09:12.769Z,26.20
2017-05-31T10:11:41.289Z,26.60
2017-05-31T10:14:09.579Z,26.90
2017-05-31T10:16:37.967Z,27.00
2017-05-31T10:19:06.298Z,27.00
2017-05-31T10:21:34.596Z,26.90
2017-05-31T10:24:02.886Z,27.40
2017-05-31T10:26:31.208Z,27.60
2017-05-31T10:28:59.498Z,27.80
2017-05-31T10:31:27.798Z,28.30
2017-05-31T10:33:56.118Z,28.10
2017-05-31T10:36:24.414Z,27.80
2017-05-31T10:38:52.730Z,27.80
2017-05-31T10:41:21.140Z,28.20
2017-05-31T10:43:49.458Z,28.20
2017-05-31T10:46:17.758Z,28.10
2017-05-31T10:48:46.050Z,28.20
2017-05-31T10:51:14.369Z,28.10
2017-05-31T10:53:42.658Z,28.20
2017-05-31T10:56:10.962Z,28.70
2017-05-31T10:58:39.289Z,29.00
2017-05-31T11:01:07.589Z,29.10
2017-05-31T11:03:35.881Z,29.00
2017-05-31T11:06:04.202Z,29.20
2017-05-31T11:08:32.589Z,29.80
2017-05-31T11:11:00.888Z,30.20
2017-05-31T11:13:29.244Z,30.00
2017-05-31T11:15:57.539Z,30.40
2017-05-31T11:18:25.829Z,30.90
2017-05-31T11:20:54.175Z,31.30
2017-05-31T11:23:22.479Z,32.80
2017-05-31T11:25:50.771Z,33.20
2017-05-31T11:28:19.103Z,33.80
2017-05-31T11:30:47.402Z,33.80
2017-05-31T11:33:15.689Z,34.60
2017-05-31T11:35:44.010Z,34.80
2017-05-31T11:38:12.302Z,35.20
2017-05-31T11:40:40.622Z,36.20
2017-05-31T11:43:08.918Z,37.50
2017-05-31T11:45:37.235Z,37.60
2017-05-31T11:48:05.546Z,37.90
2017-05-31T11:50:33.862Z,36.70
2017-05-31T11:53:02.280Z,36.10
2017-05-31T11:55:30.574Z,36.80
2017-05-31T11:57:58.897Z,37.90
2017-05-31T12:00:27.194Z,38.70
2017-05-31T12:02:55.591Z,39.50
2017-05-31T12:05:23.906Z,39.30
2017-05-31T12:07:52.205Z,39.00
2017-05-31T12:10:20.545Z,37.60
2017-05-31T12:12:48.845Z,37.40
2017-05-31T12:15:17.142Z,35.80
2017-05-31T12:17:45.460Z,34.10
2017-05-31T12:20:13.777Z,34.20
2017-05-31T12:22:42.075Z,34.40
2017-05-31T12:25:10.705Z,35.80
2017-05-31T12:27:39.021Z,37.50
2017-05-31T12:30:07.320Z,38.40
2017-05-31T12:32:35.655Z,39.40
2017-05-31T12:35:03.950Z,40.10
2017-05-31T12:37:32.246Z,40.50
2017-05-31T12:40:00.564Z,41.10
2017-05-31T12:42:28.879Z,42.30
2017-05-31T12:44:57.179Z,43.70
2017-05-31T12:47:25.506Z,43.80
2017-05-31T12:49:53.810Z,44.20
2017-05-31T12:52:22.109Z,43.60
2017-05-31T12:54:50.426Z,41.20
2017-05-31T12:57:18.774Z,37.90
2017-05-31T12:59:47.074Z,35.50
2017-05-31T13:02:15.370Z,34.00
2017-05-31T13:04:43.701Z,34.00
2017-05-31T13:07:11.999Z,35.90
2017-05-31T13:09:40.397Z,38.00
2017-05-31T13:12:08.727Z,39.80
2017-05-31T13:14:37.049Z,40.80
2017-05-31T13:17:05.347Z,41.00
2017-05-31T13:19:33.683Z,41.40
2017-05-31T13:22:02.025Z,41.70
2017-05-31T13:24:30.317Z,43.20
2017-05-31T13:26:58.615Z,44.40
2017-05-31T13:29:26.946Z,45.10
2017-05-31T13:31:55.242Z,45.40
2017-05-31T13:34:23.537Z,44.60
2017-05-31T13:36:51.856Z,44.30
2017-05-31T13:39:20.159Z,44.10
2017-05-31T13:41:48.458Z,44.80
2017-05-31T13:44:16.783Z,45.50
2017-05-31T13:46:45.079Z,44.50
2017-05-31T13:49:13.376Z,43.60
2017-05-31T13:51:41.698Z,43.10
2017-05-31T13:54:09.988Z,42.60
2017-05-31T13:56:38.285Z,42.60
2017-05-31T13:59:06.610Z,42.80
2017-05-31T14:01:34.913Z,43.00
2017-05-31T14:04:03.206Z,43.70
2017-05-31T14:06:31.526Z,43.80
2017-05-31T14:08:59.822Z,43.20
2017-05-31T14:11:28.151Z,42.70
2017-05-31T14:13:56.462Z,43.10
2017-05-31T14:16:24.865Z,44.30
2017-05-31T14:18:53.181Z,44.10
2017-05-31T14:21:21.485Z,43.90
2017-05-31T14:23:49.813Z,43.90
2017-05-31T14:26:18.115Z,44.20
2017-05-31T14:28:46.413Z,43.90
2017-05-31T14:31:14.748Z,43.20
2017-05-31T14:33:43.047Z,43.00
2017-05-31T14:36:11.607Z,42.30
2017-05-31T14:38:39.920Z,42.70
2017-05-31T14:41:08.218Z,42.10
2017-05-31T14:43:36.528Z,42.60
2017-05-31T14:46:04.843Z,42.30
2017-05-31T14:48:33.171Z,42.80
2017-05-31T14:51:01.467Z,42.70
2017-05-31T14:53:29.830Z,42.80
2017-05-31T14:55:58.162Z,42.20
2017-05-31T14:58:26.466Z,41.40
2017-05-31T15:00:54.802Z,41.50
2017-05-31T15:03:23.131Z,41.40
2017-05-31T15:05:51.520Z,41.60
2017-05-31T15:08:19.815Z,41.60
2017-05-31T15:10:48.134Z,40.60
2017-05-31T15:13:16.450Z,41.10
2017-05-31T15:15:44.777Z,42.20
2017-05-31T15:18:13.085Z,41.80
2017-05-31T15:20:41.483Z,41.30
2017-05-31T15:23:09.801Z,41.20
2017-05-31T15:25:38.102Z,41.50
2017-05-31T15:28:06.416Z,41.50
2017-05-31T15:30:34.730Z,41.20
2017-05-31T15:33:03.053Z,40.80
2017-05-31T15:35:31.450Z,40.70
2017-05-31T15:37:59.751Z,41.30
2017-05-31T15:40:28.073Z,40.80
2017-05-31T15:42:56.371Z,40.00
2017-05-31T15:45:24.759Z,39.70
2017-05-31T15:47:53.067Z,38.60
2017-05-31T15:50:21.362Z,38.00
2017-05-31T15:52:49.681Z,38.10
2017-05-31T15:55:18.287Z,38.30
2017-05-31T15:57:46.586Z,37.80
2017-05-31T16:00:14.950Z,38.00
2017-05-31T16:02:43.247Z,38.30
2017-05-31T16:05:11.554Z,38.10
2017-05-31T16:07:39.890Z,38.00
2017-05-31T16:10:08.250Z,38.30
2017-05-31T16:12:36.560Z,38.10
2017-05-31T16:15:04.996Z,36.90
2017-05-31T16:17:33.393Z,35.70
2017-05-31T16:20:01.696Z,35.40
2017-05-31T16:22:30.130Z,35.50
2017-05-31T16:24:58.611Z,35.80
2017-05-31T16:27:28.021Z,35.50
2017-05-31T16:29:56.617Z,35.10
2017-05-31T16:32:24.938Z,34.60
2017-05-31T16:34:53.455Z,33.90
2017-05-31T16:37:30.361Z,33.00
2017-05-31T16:39:58.687Z,32.40
2017-05-31T16:42:27.710Z,31.60
2017-05-31T16:44:56.661Z,31.00
2017-05-31T16:47:24.985Z,30.30
2017-05-31T16:49:53.359Z,29.90
2017-05-31T16:52:21.733Z,29.60
2017-05-31T16:54:50.115Z,29.40
2017-05-31T16:57:18.411Z,29.30
2017-05-31T16:59:46.703Z,29.20
2017-05-31T17:02:15.139Z,29.10
2017-05-31T17:04:43.458Z,29.00
2017-05-31T17:07:11.826Z,28.90
2017-05-31T17:09:40.146Z,28.70
2017-05-31T17:12:08.474Z,28.70
2017-05-31T17:14:36.774Z,28.50
2017-05-31T17:17:05.106Z,28.30
2017-05-31T17:19:33.646Z,28.40
2017-05-31T17:22:01.979Z,28.40
2017-05-31T17:24:30.281Z,28.40
2017-05-31T17:26:58.594Z,28.30
2017-05-31T17:29:26.907Z,28.20
2017-05-31T17:31:55.285Z,27.90
2017-05-31T17:34:23.593Z,27.70
2017-05-31T17:36:52.245Z,27.40
2017-05-31T17:39:20.547Z,27.20
2017-05-31T17:41:48.951Z,26.90
2017-05-31T17:44:17.275Z,26.70
2017-05-31T17:46:45.572Z,26.40
2017-05-31T17:49:13.892Z,26.20
2017-05-31T17:51:42.195Z,26.10
2017-05-31T17:54:10.776Z,25.90
2017-05-31T17:56:39.094Z,25.70
2017-05-31T17:59:07.439Z,25.50
2017-05-31T18:01:35.736Z,25.30
2017-05-31T18:04:04.040Z,25.20
2017-05-31T18:06:32.367Z,25.10
2017-05-31T18:09:00.666Z,25.00
2017-05-31T18:11:28.978Z,24.80
2017-05-31T18:13:57.406Z,24.70
2017-05-31T18:16:25.782Z,24.60
2017-05-31T18:18:54.105Z,24.50
2017-05-31T18:21:22.424Z,24.30
2017-05-31T18:23:50.763Z,24.20
2017-05-31T18:26:19.098Z,24.00
2017-05-31T18:28:47.483Z,23.90
2017-05-31T18:31:16.047Z,23.70
2017-05-31T18:33:44.357Z,23.60
2017-05-31T18:36:12.665Z,23.50
2017-05-31T18:38:41.003Z,23.40
2017-05-31T18:41:09.409Z,23.20
2017-05-31T18:43:37.745Z,23.10
2017-05-31T18:46:06.079Z,23.00
2017-05-31T18:48:34.381Z,22.80
2017-05-31T18:51:05.611Z,22.80
2017-05-31T18:53:33.911Z,22.60
2017-05-31T18:56:02.287Z,22.50
2017-05-31T18:58:31.173Z,22.40
2017-05-31T19:00:59.857Z,22.20
2017-05-31T19:03:28.176Z,22.20
2017-05-31T19:05:56.518Z,22.10
2017-05-31T19:08:24.899Z,22.00
2017-05-31T19:10:53.294Z,21.90
2017-05-31T19:13:21.636Z,21.70
2017-05-31T19:15:49.961Z,21.60
2017-05-31T19:18:18.402Z,21.50
2017-05-31T19:20:46.718Z,21.30
2017-05-31T19:23:15.026Z,21.30
2017-05-31T19:25:43.377Z,21.10
2017-05-31T19:28:11.762Z,21.10
2017-05-31T19:30:40.133Z,21.00
2017-05-31T19:33:08.464Z,21.00
2017-05-31T19:35:36.774Z,21.00
2017-05-31T19:38:05.141Z,20.90
2017-05-31T19:40:33.465Z,20.80
2017-05-31T19:43:01.789Z,20.80
2017-05-31T19:45:30.167Z,20.80
2017-05-31T19:47:58.575Z,20.70
2017-05-31T19:50:26.899Z,20.60
2017-05-31T19:52:55.201Z,20.50
2017-05-31T19:55:23.571Z,20.40
2017-05-31T19:57:51.969Z,20.40
2017-05-31T20:00:20.354Z,20.30
2017-05-31T20:02:48.807Z,20.30
2017-05-31T20:05:17.557Z,20.30
2017-05-31T20:07:45.862Z,20.20
2017-05-31T20:10:14.222Z,20.10
2017-05-31T20:12:42.546Z,20.00
2017-05-31T20:15:10.912Z,19.90
2017-05-31T20:17:39.638Z,19.80
2017-05-31T20:20:07.950Z,19.80
2017-05-31T20:22:36.356Z,19.70
2017-05-31T20:25:04.677Z,19.70
2017-05-31T20:27:33.018Z,19.70
2017-05-31T20:30:01.389Z,19.70
2017-05-31T20:32:29.698Z,19.60
2017-05-31T20:34:58.043Z,19.60
2017-05-31T20:37:26.341Z,19.60
2017-05-31T20:39:54.641Z,19.60
2017-05-31T20:42:22.958Z,19.60
2017-05-31T20:44:51.316Z,19.50
2017-05-31T20:47:19.604Z,19.40
2017-05-31T20:49:47.937Z,19.40
2017-05-31T20:52:16.317Z,19.40
2017-05-31T20:54:44.646Z,19.40
2017-05-31T20:57:12.965Z,19.40
2017-05-31T20:59:41.262Z,19.30
2017-05-31T21:02:09.583Z,19.40
2017-05-31T21:04:37.886Z,19.30
2017-05-31T21:07:06.231Z,19.20
2017-05-31T21:09:34.622Z,19.20
2017-05-31T21:12:02.990Z,19.10
2017-05-31T21:14:31.378Z,19.10
2017-05-31T21:16:59.677Z,19.10
2017-05-31T21:19:28.009Z,19.00
2017-05-31T21:21:56.492Z,18.90
2017-05-31T21:24:24.972Z,18.80
2017-05-31T21:26:53.365Z,18.70
2017-05-31T21:29:21.741Z,18.70
2017-05-31T21:31:50.037Z,18.70
2017-05-31T21:34:18.490Z,18.60
2017-05-31T21:36:46.967Z,18.60
2017-05-31T21:39:15.337Z,18.50
2017-05-31T21:41:43.741Z,18.50
2017-05-31T21:44:12.113Z,18.50
2017-05-31T21:46:40.450Z,18.50
2017-05-31T21:49:08.767Z,18.40
2017-05-31T21:51:37.150Z,18.30
2017-05-31T21:54:05.483Z,18.30
2017-05-31T21:56:33.815Z,18.20
2017-05-31T21:59:02.183Z,18.20
2017-05-31T22:01:30.559Z,18.20
2017-05-31T22:03:58.854Z,18.10
2017-05-31T22:06:27.144Z,18.10
2017-05-31T22:08:55.491Z,17.90
2017-05-31T22:11:23.866Z,17.90
2017-05-31T22:13:52.234Z,17.80
2017-05-31T22:16:20.563Z,17.90
2017-05-31T22:18:48.897Z,17.90
2017-05-31T22:21:17.782Z,17.80
2017-05-31T22:23:46.111Z,17.80
2017-05-31T22:26:14.486Z,17.70
2017-05-31T22:28:42.782Z,17.70
2017-05-31T22:31:11.100Z,17.60
2017-05-31T22:33:39.401Z,17.50
2017-05-31T22:36:07.851Z,17.50
2017-05-31T22:38:36.145Z,17.40
2017-05-31T22:41:04.606Z,17.30
2017-05-31T22:43:32.994Z,17.30
2017-05-31T22:46:01.297Z,17.20
2017-05-31T22:48:29.675Z,17.20
2017-05-31T22:50:58.021Z,17.10
2017-05-31T22:53:26.719Z,17.10
2017-05-31T22:55:55.186Z,16.90
2017-05-31T22:58:23.487Z,16.90
2017-05-31T23:00:51.807Z,16.80
2017-05-31T23:03:20.116Z,16.70
2017-05-31T23:05:48.411Z,16.70
2017-05-31T23:08:16.774Z,16.60
2017-05-31T23:10:45.152Z,16.50
2017-05-31T23:13:13.445Z,16.50
2017-05-31T23:15:41.759Z,16.40
2017-05-31T23:18:10.058Z,16.40
2017-05-31T23:20:38.460Z,16.40
2017-05-31T23:23:06.755Z,16.40
2017-05-31T23:25:35.122Z,16.40
2017-05-31T23:28:03.510Z,16.30
2017-05-31T23:30:32.089Z,16.20
2017-05-31T23:33:00.464Z,16.20
2017-05-31T23:35:28.791Z,16.10
2017-05-31T23:37:57.121Z,16.10
2017-05-31T23:40:25.498Z,16.10
2017-05-31T23:42:53.881Z,16.10
2017-05-31T23:45:22.348Z,16.00
2017-05-31T23:47:50.733Z,16.00
2017-05-31T23:50:19.127Z,15.90
2017-05-31T23:52:47.465Z,16.00
2017-05-31T23:55:15.763Z,15.90
2017-05-31T23:57:44.061Z,15.80
